sensor_id;sensor_type;location;lat;lon;timestamp;P1;durP1;ratioP1;P2;durP2;ratioP2
7503;SDS011;3793;48.136;11.536;2023-04-09T00:01:16;7.63;;;6.83;;
7503;SDS011;3793;48.136;11.536;2023-04-09T00:03:43;7.43;;;6.60;;
7503;SDS011;3793;48.136;11.536;2023-04-09T00:06:09;8.67;;;7.50;;
7503;SDS011;3793;48.136;11.536;2023-04-09T00:08:36;8.87;;;7.17;;
7503;SDS011;3793;48.136;11.536;2023-04-09T00:11:03;9.27;;;7.83;;
7503;SDS011;3793;48.136;11.536;2023-04-09T00:13:30;8.33;;;7.07;;
7503;SDS011;3793;48.136;11.536;2023-04-09T00:15:58;9.03;;;7.90;;
7503;SDS011;3793;48.136;11.536;2023-04-09T00:18:24;9.53;;;7.30;;
7503;SDS011;3793;48.136;11.536;2023-04-09T00:20:51;9.67;;;7.87;;
7503;SDS011;3793;48.136;11.536;2023-04-09T00:23:17;9.47;;;8.03;;
7503;SDS011;3793;48.136;11.536;2023-04-09T00:25:44;8.03;;;6.80;;
7503;SDS011;3793;48.136;11.536;2023-04-09T00:28:11;9.30;;;7.43;;
7503;SDS011;3793;48.136;11.536;2023-04-09T00:30:37;9.83;;;7.70;;
7503;SDS011;3793;48.136;11.536;2023-04-09T00:33:05;9.33;;;7.37;;
7503;SDS011;3793;48.136;11.536;2023-04-09T00:35:32;12.03;;;9.20;;
7503;SDS011;3793;48.136;11.536;2023-04-09T00:37:58;11.83;;;9.77;;
7503;SDS011;3793;48.136;11.536;2023-04-09T00:40:25;11.47;;;9.80;;
7503;SDS011;3793;48.136;11.536;2023-04-09T00:42:52;14.23;;;10.37;;
7503;SDS011;3793;48.136;11.536;2023-04-09T00:45:18;15.87;;;11.47;;
7503;SDS011;3793;48.136;11.536;2023-04-09T00:47:45;15.23;;;11.33;;
7503;SDS011;3793;48.136;11.536;2023-04-09T00:50:12;14.67;;;10.97;;
7503;SDS011;3793;48.136;11.536;2023-04-09T00:52:39;13.80;;;10.87;;
7503;SDS011;3793;48.136;11.536;2023-04-09T00:55:06;13.63;;;10.17;;
7503;SDS011;3793;48.136;11.536;2023-04-09T00:57:33;12.23;;;9.20;;
7503;SDS011;3793;48.136;11.536;2023-04-09T00:59:59;11.63;;;9.27;;
7503;SDS011;3793;48.136;11.536;2023-04-09T01:02:26;10.57;;;9.10;;
7503;SDS011;3793;48.136;11.536;2023-04-09T01:04:54;11.73;;;8.70;;
7503;SDS011;3793;48.136;11.536;2023-04-09T01:07:24;10.70;;;9.30;;
7503;SDS011;3793;48.136;11.536;2023-04-09T01:09:53;12.17;;;8.73;;
7503;SDS011;3793;48.136;11.536;2023-04-09T01:12:25;12.77;;;8.00;;
7503;SDS011;3793;48.136;11.536;2023-04-09T01:14:54;9.23;;;8.23;;
7503;SDS011;3793;48.136;11.536;2023-04-09T01:17:23;8.93;;;7.60;;
7503;SDS011;3793;48.136;11.536;2023-04-09T01:19:53;10.87;;;7.40;;
7503;SDS011;3793;48.136;11.536;2023-04-09T01:22:30;10.47;;;7.93;;
7503;SDS011;3793;48.136;11.536;2023-04-09T01:25:03;10.13;;;8.13;;
7503;SDS011;3793;48.136;11.536;2023-04-09T01:27:33;9.10;;;7.40;;
7503;SDS011;3793;48.136;11.536;2023-04-09T01:30:05;10.13;;;7.37;;
7503;SDS011;3793;48.136;11.536;2023-04-09T01:32:32;9.00;;;7.23;;
7503;SDS011;3793;48.136;11.536;2023-04-09T01:34:59;9.13;;;7.57;;
7503;SDS011;3793;48.136;11.536;2023-04-09T01:37:26;11.03;;;7.87;;
7503;SDS011;3793;48.136;11.536;2023-04-09T01:39:55;9.87;;;7.50;;
7503;SDS011;3793;48.136;11.536;2023-04-09T01:42:21;8.83;;;7.67;;
7503;SDS011;3793;48.136;11.536;2023-04-09T01:44:48;8.30;;;7.03;;
7503;SDS011;3793;48.136;11.536;2023-04-09T01:47:17;10.37;;;7.83;;
7503;SDS011;3793;48.136;11.536;2023-04-09T01:49:43;8.77;;;7.43;;
7503;SDS011;3793;48.136;11.536;2023-04-09T01:52:10;9.40;;;7.23;;
7503;SDS011;3793;48.136;11.536;2023-04-09T01:54:37;11.03;;;8.00;;
7503;SDS011;3793;48.136;11.536;2023-04-09T01:57:04;12.07;;;7.67;;
7503;SDS011;3793;48.136;11.536;2023-04-09T01:59:30;9.83;;;8.67;;
7503;SDS011;3793;48.136;11.536;2023-04-09T02:01:57;9.90;;;8.30;;
7503;SDS011;3793;48.136;11.536;2023-04-09T02:04:27;9.83;;;8.00;;
7503;SDS011;3793;48.136;11.536;2023-04-09T02:06:56;8.93;;;8.03;;
7503;SDS011;3793;48.136;11.536;2023-04-09T02:09:24;10.50;;;8.13;;
7503;SDS011;3793;48.136;11.536;2023-04-09T02:11:52;10.43;;;8.13;;
7503;SDS011;3793;48.136;11.536;2023-04-09T02:14:20;10.77;;;8.03;;
7503;SDS011;3793;48.136;11.536;2023-04-09T02:16:47;8.50;;;7.60;;
7503;SDS011;3793;48.136;11.536;2023-04-09T02:19:14;10.10;;;8.63;;
7503;SDS011;3793;48.136;11.536;2023-04-09T02:21:42;10.10;;;8.27;;
7503;SDS011;3793;48.136;11.536;2023-04-09T02:24:09;9.80;;;7.93;;
7503;SDS011;3793;48.136;11.536;2023-04-09T02:26:36;8.90;;;7.27;;
7503;SDS011;3793;48.136;11.536;2023-04-09T02:29:02;9.40;;;8.10;;
7503;SDS011;3793;48.136;11.536;2023-04-09T02:31:29;10.50;;;7.77;;
7503;SDS011;3793;48.136;11.536;2023-04-09T02:33:55;10.70;;;8.73;;
7503;SDS011;3793;48.136;11.536;2023-04-09T02:36:22;8.93;;;8.03;;
7503;SDS011;3793;48.136;11.536;2023-04-09T02:38:50;9.87;;;8.53;;
7503;SDS011;3793;48.136;11.536;2023-04-09T02:41:17;10.60;;;8.00;;
7503;SDS011;3793;48.136;11.536;2023-04-09T02:43:43;9.50;;;7.83;;
7503;SDS011;3793;48.136;11.536;2023-04-09T02:46:10;9.17;;;8.10;;
7503;SDS011;3793;48.136;11.536;2023-04-09T02:48:36;9.27;;;8.20;;
7503;SDS011;3793;48.136;11.536;2023-04-09T02:51:03;9.80;;;8.10;;
7503;SDS011;3793;48.136;11.536;2023-04-09T02:53:30;9.83;;;8.27;;
7503;SDS011;3793;48.136;11.536;2023-04-09T02:55:58;9.50;;;7.87;;
7503;SDS011;3793;48.136;11.536;2023-04-09T02:58:24;11.27;;;8.60;;
7503;SDS011;3793;48.136;11.536;2023-04-09T03:00:51;11.00;;;8.67;;
7503;SDS011;3793;48.136;11.536;2023-04-09T03:03:18;9.33;;;8.10;;
7503;SDS011;3793;48.136;11.536;2023-04-09T03:05:44;10.00;;;7.93;;
7503;SDS011;3793;48.136;11.536;2023-04-09T03:08:11;9.53;;;8.40;;
7503;SDS011;3793;48.136;11.536;2023-04-09T03:10:37;9.80;;;8.27;;
7503;SDS011;3793;48.136;11.536;2023-04-09T03:13:05;11.27;;;8.93;;
7503;SDS011;3793;48.136;11.536;2023-04-09T03:15:32;10.83;;;8.87;;
7503;SDS011;3793;48.136;11.536;2023-04-09T03:17:58;10.83;;;9.47;;
7503;SDS011;3793;48.136;11.536;2023-04-09T03:20:25;10.63;;;9.03;;
7503;SDS011;3793;48.136;11.536;2023-04-09T03:22:51;12.30;;;9.40;;
7503;SDS011;3793;48.136;11.536;2023-04-09T03:25:18;11.93;;;9.30;;
7503;SDS011;3793;48.136;11.536;2023-04-09T03:27:45;11.27;;;9.60;;
7503;SDS011;3793;48.136;11.536;2023-04-09T03:30:13;11.47;;;9.00;;
7503;SDS011;3793;48.136;11.536;2023-04-09T03:32:40;10.87;;;9.10;;
7503;SDS011;3793;48.136;11.536;2023-04-09T03:35:07;11.60;;;8.80;;
7503;SDS011;3793;48.136;11.536;2023-04-09T03:37:34;10.10;;;9.00;;
7503;SDS011;3793;48.136;11.536;2023-04-09T03:40:00;10.93;;;9.27;;
7503;SDS011;3793;48.136;11.536;2023-04-09T03:42:27;11.67;;;9.80;;
7503;SDS011;3793;48.136;11.536;2023-04-09T03:44:54;12.70;;;10.30;;
7503;SDS011;3793;48.136;11.536;2023-04-09T03:47:22;14.03;;;9.53;;
7503;SDS011;3793;48.136;11.536;2023-04-09T03:49:49;15.13;;;10.67;;
7503;SDS011;3793;48.136;11.536;2023-04-09T03:52:16;13.17;;;9.87;;
7503;SDS011;3793;48.136;11.536;2023-04-09T03:54:42;13.10;;;10.27;;
7503;SDS011;3793;48.136;11.536;2023-04-09T03:57:09;12.63;;;10.67;;
7503;SDS011;3793;48.136;11.536;2023-04-09T03:59:36;14.33;;;10.47;;
7503;SDS011;3793;48.136;11.536;2023-04-09T04:02:02;12.17;;;10.57;;
7503;SDS011;3793;48.136;11.536;2023-04-09T04:04:30;14.87;;;10.87;;
7503;SDS011;3793;48.136;11.536;2023-04-09T04:06:57;12.13;;;10.30;;
7503;SDS011;3793;48.136;11.536;2023-04-09T04:09:23;14.90;;;10.97;;
7503;SDS011;3793;48.136;11.536;2023-04-09T04:11:50;13.47;;;10.57;;
7503;SDS011;3793;48.136;11.536;2023-04-09T04:14:17;13.07;;;10.23;;
7503;SDS011;3793;48.136;11.536;2023-04-09T04:16:43;11.80;;;10.03;;
7503;SDS011;3793;48.136;11.536;2023-04-09T04:19:10;13.70;;;10.87;;
7503;SDS011;3793;48.136;11.536;2023-04-09T04:21:38;13.27;;;10.97;;
7503;SDS011;3793;48.136;11.536;2023-04-09T04:24:05;12.90;;;10.90;;
7503;SDS011;3793;48.136;11.536;2023-04-09T04:26:31;13.57;;;10.70;;
7503;SDS011;3793;48.136;11.536;2023-04-09T04:28:58;13.17;;;10.43;;
7503;SDS011;3793;48.136;11.536;2023-04-09T04:31:25;15.63;;;12.33;;
7503;SDS011;3793;48.136;11.536;2023-04-09T04:33:51;14.97;;;12.27;;
7503;SDS011;3793;48.136;11.536;2023-04-09T04:36:18;15.50;;;12.53;;
7503;SDS011;3793;48.136;11.536;2023-04-09T04:38:46;16.63;;;12.83;;
7503;SDS011;3793;48.136;11.536;2023-04-09T04:41:12;16.77;;;12.53;;
7503;SDS011;3793;48.136;11.536;2023-04-09T04:43:39;14.87;;;12.03;;
7503;SDS011;3793;48.136;11.536;2023-04-09T04:46:06;15.07;;;12.23;;
7503;SDS011;3793;48.136;11.536;2023-04-09T04:48:33;15.60;;;12.50;;
7503;SDS011;3793;48.136;11.536;2023-04-09T04:51:00;16.60;;;11.90;;
7503;SDS011;3793;48.136;11.536;2023-04-09T04:53:26;17.80;;;12.77;;
7503;SDS011;3793;48.136;11.536;2023-04-09T04:55:55;15.83;;;12.73;;
7503;SDS011;3793;48.136;11.536;2023-04-09T04:58:21;14.57;;;12.07;;
7503;SDS011;3793;48.136;11.536;2023-04-09T05:00:48;14.27;;;11.97;;
7503;SDS011;3793;48.136;11.536;2023-04-09T05:03:14;14.90;;;11.57;;
7503;SDS011;3793;48.136;11.536;2023-04-09T05:05:41;15.97;;;12.47;;
7503;SDS011;3793;48.136;11.536;2023-04-09T05:08:08;15.07;;;12.27;;
7503;SDS011;3793;48.136;11.536;2023-04-09T05:10:34;16.73;;;12.83;;
7503;SDS011;3793;48.136;11.536;2023-04-09T05:13:02;16.37;;;13.00;;
7503;SDS011;3793;48.136;11.536;2023-04-09T05:15:29;16.53;;;12.20;;
7503;SDS011;3793;48.136;11.536;2023-04-09T05:17:55;15.33;;;11.53;;
7503;SDS011;3793;48.136;11.536;2023-04-09T05:20:22;17.80;;;13.50;;
7503;SDS011;3793;48.136;11.536;2023-04-09T05:22:48;16.00;;;12.40;;
7503;SDS011;3793;48.136;11.536;2023-04-09T05:25:15;16.40;;;13.07;;
7503;SDS011;3793;48.136;11.536;2023-04-09T05:27:42;16.47;;;12.17;;
7503;SDS011;3793;48.136;11.536;2023-04-09T05:30:10;17.07;;;13.40;;
7503;SDS011;3793;48.136;11.536;2023-04-09T05:32:37;16.10;;;12.43;;
7503;SDS011;3793;48.136;11.536;2023-04-09T05:35:04;17.63;;;12.83;;
7503;SDS011;3793;48.136;11.536;2023-04-09T05:37:30;17.23;;;13.57;;
7503;SDS011;3793;48.136;11.536;2023-04-09T05:39:57;16.03;;;12.83;;
7503;SDS011;3793;48.136;11.536;2023-04-09T05:42:23;18.53;;;13.83;;
7503;SDS011;3793;48.136;11.536;2023-04-09T05:44:50;18.40;;;13.53;;
7503;SDS011;3793;48.136;11.536;2023-04-09T05:47:18;18.87;;;13.00;;
7503;SDS011;3793;48.136;11.536;2023-04-09T05:49:45;17.80;;;14.00;;
7503;SDS011;3793;48.136;11.536;2023-04-09T05:52:12;19.63;;;13.67;;
7503;SDS011;3793;48.136;11.536;2023-04-09T05:54:38;19.67;;;14.03;;
7503;SDS011;3793;48.136;11.536;2023-04-09T05:57:05;17.97;;;14.60;;
7503;SDS011;3793;48.136;11.536;2023-04-09T05:59:32;19.10;;;14.17;;
7503;SDS011;3793;48.136;11.536;2023-04-09T06:01:59;18.57;;;14.40;;
7503;SDS011;3793;48.136;11.536;2023-04-09T06:04:27;20.10;;;16.03;;
7503;SDS011;3793;48.136;11.536;2023-04-09T06:06:53;17.90;;;14.63;;
7503;SDS011;3793;48.136;11.536;2023-04-09T06:09:24;18.73;;;15.93;;
7503;SDS011;3793;48.136;11.536;2023-04-09T06:11:50;17.80;;;14.83;;
7503;SDS011;3793;48.136;11.536;2023-04-09T06:14:17;19.50;;;14.53;;
7503;SDS011;3793;48.136;11.536;2023-04-09T06:16:43;17.23;;;13.83;;
7503;SDS011;3793;48.136;11.536;2023-04-09T06:19:11;19.33;;;14.97;;
7503;SDS011;3793;48.136;11.536;2023-04-09T06:21:39;17.27;;;13.93;;
7503;SDS011;3793;48.136;11.536;2023-04-09T06:24:06;15.73;;;13.20;;
7503;SDS011;3793;48.136;11.536;2023-04-09T06:26:38;16.83;;;13.43;;
7503;SDS011;3793;48.136;11.536;2023-04-09T06:29:05;17.43;;;13.90;;
7503;SDS011;3793;48.136;11.536;2023-04-09T06:31:32;17.60;;;14.07;;
7503;SDS011;3793;48.136;11.536;2023-04-09T06:33:59;15.93;;;13.47;;
7503;SDS011;3793;48.136;11.536;2023-04-09T06:36:25;17.13;;;13.20;;
7503;SDS011;3793;48.136;11.536;2023-04-09T06:38:54;15.63;;;12.63;;
7503;SDS011;3793;48.136;11.536;2023-04-09T06:41:23;16.10;;;12.37;;
7503;SDS011;3793;48.136;11.536;2023-04-09T06:43:50;15.90;;;12.57;;
7503;SDS011;3793;48.136;11.536;2023-04-09T06:46:17;15.47;;;12.67;;
7503;SDS011;3793;48.136;11.536;2023-04-09T06:48:45;16.30;;;12.03;;
7503;SDS011;3793;48.136;11.536;2023-04-09T06:51:11;12.57;;;10.70;;
7503;SDS011;3793;48.136;11.536;2023-04-09T06:53:39;14.00;;;11.37;;
7503;SDS011;3793;48.136;11.536;2023-04-09T06:56:07;13.40;;;11.07;;
7503;SDS011;3793;48.136;11.536;2023-04-09T06:58:33;13.10;;;10.77;;
7503;SDS011;3793;48.136;11.536;2023-04-09T07:01:03;14.57;;;10.67;;
7503;SDS011;3793;48.136;11.536;2023-04-09T07:03:30;12.87;;;10.30;;
7503;SDS011;3793;48.136;11.536;2023-04-09T07:05:56;12.57;;;10.60;;
7503;SDS011;3793;48.136;11.536;2023-04-09T07:08:23;12.90;;;11.17;;
7503;SDS011;3793;48.136;11.536;2023-04-09T07:10:50;11.30;;;10.07;;
7503;SDS011;3793;48.136;11.536;2023-04-09T07:13:18;11.70;;;9.97;;
7503;SDS011;3793;48.136;11.536;2023-04-09T07:15:44;10.97;;;9.37;;
7503;SDS011;3793;48.136;11.536;2023-04-09T07:18:11;12.37;;;10.20;;
7503;SDS011;3793;48.136;11.536;2023-04-09T07:20:37;11.20;;;9.23;;
7503;SDS011;3793;48.136;11.536;2023-04-09T07:23:04;10.53;;;9.40;;
7503;SDS011;3793;48.136;11.536;2023-04-09T07:25:30;11.63;;;8.83;;
7503;SDS011;3793;48.136;11.536;2023-04-09T07:27:58;10.93;;;8.37;;
7503;SDS011;3793;48.136;11.536;2023-04-09T07:30:26;10.10;;;7.57;;
7503;SDS011;3793;48.136;11.536;2023-04-09T07:32:52;8.67;;;7.77;;
7503;SDS011;3793;48.136;11.536;2023-04-09T07:35:19;9.07;;;7.90;;
7503;SDS011;3793;48.136;11.536;2023-04-09T07:37:46;9.53;;;8.53;;
7503;SDS011;3793;48.136;11.536;2023-04-09T07:40:12;9.80;;;8.60;;
7503;SDS011;3793;48.136;11.536;2023-04-09T07:42:39;8.87;;;7.97;;
7503;SDS011;3793;48.136;11.536;2023-04-09T07:45:06;9.10;;;8.20;;
7503;SDS011;3793;48.136;11.536;2023-04-09T07:47:35;8.97;;;8.07;;
7503;SDS011;3793;48.136;11.536;2023-04-09T07:50:02;9.73;;;8.20;;
7503;SDS011;3793;48.136;11.536;2023-04-09T07:52:29;8.20;;;7.30;;
7503;SDS011;3793;48.136;11.536;2023-04-09T07:54:55;7.57;;;6.57;;
7503;SDS011;3793;48.136;11.536;2023-04-09T07:57:22;7.50;;;6.70;;
7503;SDS011;3793;48.136;11.536;2023-04-09T07:59:48;7.50;;;6.63;;
7503;SDS011;3793;48.136;11.536;2023-04-09T08:02:15;7.67;;;6.97;;
7503;SDS011;3793;48.136;11.536;2023-04-09T08:04:44;7.60;;;6.90;;
7503;SDS011;3793;48.136;11.536;2023-04-09T08:07:10;6.90;;;6.20;;
7503;SDS011;3793;48.136;11.536;2023-04-09T08:09:37;7.57;;;6.73;;
7503;SDS011;3793;48.136;11.536;2023-04-09T08:12:04;7.43;;;6.53;;
7503;SDS011;3793;48.136;11.536;2023-04-09T08:14:30;7.43;;;6.73;;
7503;SDS011;3793;48.136;11.536;2023-04-09T08:16:57;7.33;;;6.60;;
7503;SDS011;3793;48.136;11.536;2023-04-09T08:19:25;9.17;;;6.80;;
7503;SDS011;3793;48.136;11.536;2023-04-09T08:21:53;7.07;;;6.37;;
7503;SDS011;3793;48.136;11.536;2023-04-09T08:24:20;7.57;;;6.87;;
7503;SDS011;3793;48.136;11.536;2023-04-09T08:26:47;7.23;;;6.53;;
7503;SDS011;3793;48.136;11.536;2023-04-09T08:29:13;7.97;;;7.17;;
7503;SDS011;3793;48.136;11.536;2023-04-09T08:31:40;8.17;;;7.33;;
7503;SDS011;3793;48.136;11.536;2023-04-09T08:34:07;8.27;;;7.30;;
7503;SDS011;3793;48.136;11.536;2023-04-09T08:36:33;8.53;;;7.63;;
7503;SDS011;3793;48.136;11.536;2023-04-09T08:39:02;8.77;;;7.47;;
7503;SDS011;3793;48.136;11.536;2023-04-09T08:41:29;7.90;;;7.10;;
7503;SDS011;3793;48.136;11.536;2023-04-09T08:43:55;8.67;;;7.77;;
7503;SDS011;3793;48.136;11.536;2023-04-09T08:46:23;8.40;;;7.60;;
7503;SDS011;3793;48.136;11.536;2023-04-09T08:48:50;7.60;;;6.90;;
7503;SDS011;3793;48.136;11.536;2023-04-09T08:51:20;8.00;;;7.20;;
7503;SDS011;3793;48.136;11.536;2023-04-09T08:53:48;7.93;;;7.03;;
7503;SDS011;3793;48.136;11.536;2023-04-09T08:56:18;8.47;;;7.40;;
7503;SDS011;3793;48.136;11.536;2023-04-09T08:58:46;7.93;;;6.93;;
7503;SDS011;3793;48.136;11.536;2023-04-09T09:01:20;8.30;;;7.50;;
7503;SDS011;3793;48.136;11.536;2023-04-09T09:03:56;8.87;;;7.97;;
7503;SDS011;3793;48.136;11.536;2023-04-09T09:06:24;8.90;;;8.00;;
7503;SDS011;3793;48.136;11.536;2023-04-09T09:09:02;8.13;;;7.33;;
7503;SDS011;3793;48.136;11.536;2023-04-09T09:11:30;9.33;;;8.33;;
7503;SDS011;3793;48.136;11.536;2023-04-09T09:13:57;7.97;;;7.17;;
7503;SDS011;3793;48.136;11.536;2023-04-09T09:16:23;8.13;;;7.33;;
7503;SDS011;3793;48.136;11.536;2023-04-09T09:18:50;8.30;;;7.27;;
7503;SDS011;3793;48.136;11.536;2023-04-09T09:21:16;8.77;;;7.73;;
7503;SDS011;3793;48.136;11.536;2023-04-09T09:23:43;8.00;;;7.30;;
7503;SDS011;3793;48.136;11.536;2023-04-09T09:26:12;8.80;;;7.87;;
7503;SDS011;3793;48.136;11.536;2023-04-09T09:28:41;8.77;;;7.77;;
7503;SDS011;3793;48.136;11.536;2023-04-09T09:31:09;10.63;;;9.20;;
7503;SDS011;3793;48.136;11.536;2023-04-09T09:33:36;12.57;;;9.97;;
7503;SDS011;3793;48.136;11.536;2023-04-09T09:36:02;13.27;;;10.17;;
7503;SDS011;3793;48.136;11.536;2023-04-09T09:38:29;11.17;;;9.67;;
7503;SDS011;3793;48.136;11.536;2023-04-09T09:40:56;13.00;;;11.17;;
7503;SDS011;3793;48.136;11.536;2023-04-09T09:43:23;10.57;;;9.47;;
7503;SDS011;3793;48.136;11.536;2023-04-09T09:45:51;11.30;;;9.80;;
7503;SDS011;3793;48.136;11.536;2023-04-09T09:48:18;10.50;;;9.43;;
7503;SDS011;3793;48.136;11.536;2023-04-09T09:50:45;11.00;;;9.90;;
7503;SDS011;3793;48.136;11.536;2023-04-09T09:53:13;10.83;;;9.73;;
7503;SDS011;3793;48.136;11.536;2023-04-09T09:55:40;10.83;;;9.73;;
7503;SDS011;3793;48.136;11.536;2023-04-09T09:58:11;10.60;;;9.37;;
7503;SDS011;3793;48.136;11.536;2023-04-09T10:00:41;13.00;;;10.67;;
7503;SDS011;3793;48.136;11.536;2023-04-09T10:03:12;12.20;;;10.90;;
7503;SDS011;3793;48.136;11.536;2023-04-09T10:05:40;12.30;;;10.50;;
7503;SDS011;3793;48.136;11.536;2023-04-09T10:08:06;11.50;;;10.20;;
7503;SDS011;3793;48.136;11.536;2023-04-09T10:10:33;12.67;;;10.80;;
7503;SDS011;3793;48.136;11.536;2023-04-09T10:13:00;12.50;;;10.97;;
7503;SDS011;3793;48.136;11.536;2023-04-09T10:15:27;11.53;;;10.23;;
7503;SDS011;3793;48.136;11.536;2023-04-09T10:17:55;11.10;;;9.90;;
7503;SDS011;3793;48.136;11.536;2023-04-09T10:20:25;11.50;;;10.30;;
7503;SDS011;3793;48.136;11.536;2023-04-09T10:22:52;11.60;;;10.40;;
7503;SDS011;3793;48.136;11.536;2023-04-09T10:25:20;11.33;;;10.03;;
7503;SDS011;3793;48.136;11.536;2023-04-09T10:27:53;12.47;;;11.17;;
7503;SDS011;3793;48.136;11.536;2023-04-09T10:30:30;10.77;;;9.67;;
7503;SDS011;3793;48.136;11.536;2023-04-09T10:33:06;11.87;;;10.43;;
7503;SDS011;3793;48.136;11.536;2023-04-09T10:35:34;13.17;;;11.10;;
7503;SDS011;3793;48.136;11.536;2023-04-09T10:38:01;13.10;;;11.67;;
7503;SDS011;3793;48.136;11.536;2023-04-09T10:40:27;12.83;;;11.43;;
7503;SDS011;3793;48.136;11.536;2023-04-09T10:42:54;13.23;;;11.87;;
7503;SDS011;3793;48.136;11.536;2023-04-09T10:45:21;11.60;;;10.40;;
7503;SDS011;3793;48.136;11.536;2023-04-09T10:47:48;12.27;;;10.57;;
7503;SDS011;3793;48.136;11.536;2023-04-09T10:50:16;11.77;;;10.13;;
7503;SDS011;3793;48.136;11.536;2023-04-09T10:52:44;11.03;;;9.93;;
7503;SDS011;3793;48.136;11.536;2023-04-09T10:57:52;14.17;;;10.87;;
7503;SDS011;3793;48.136;11.536;2023-04-09T11:00:19;12.53;;;10.30;;
7503;SDS011;3793;48.136;11.536;2023-04-09T11:03:04;13.13;;;10.93;;
7503;SDS011;3793;48.136;11.536;2023-04-09T11:05:35;12.20;;;10.70;;
7503;SDS011;3793;48.136;11.536;2023-04-09T11:08:07;12.43;;;10.97;;
7503;SDS011;3793;48.136;11.536;2023-04-09T11:10:35;13.07;;;11.43;;
7503;SDS011;3793;48.136;11.536;2023-04-09T11:13:01;13.10;;;11.73;;
7503;SDS011;3793;48.136;11.536;2023-04-09T11:15:28;12.47;;;11.17;;
7503;SDS011;3793;48.136;11.536;2023-04-09T11:17:55;11.87;;;10.63;;
7503;SDS011;3793;48.136;11.536;2023-04-09T11:20:22;12.93;;;10.93;;
7503;SDS011;3793;48.136;11.536;2023-04-09T11:22:50;12.40;;;10.87;;
7503;SDS011;3793;48.136;11.536;2023-04-09T11:25:19;13.23;;;11.03;;
7503;SDS011;3793;48.136;11.536;2023-04-09T11:27:45;12.27;;;10.97;;
7503;SDS011;3793;48.136;11.536;2023-04-09T11:30:12;12.80;;;10.67;;
7503;SDS011;3793;48.136;11.536;2023-04-09T11:32:39;11.40;;;10.20;;
7503;SDS011;3793;48.136;11.536;2023-04-09T11:35:09;10.93;;;9.80;;
7503;SDS011;3793;48.136;11.536;2023-04-09T11:37:37;11.03;;;9.13;;
7503;SDS011;3793;48.136;11.536;2023-04-09T11:40:04;10.53;;;9.40;;
7503;SDS011;3793;48.136;11.536;2023-04-09T11:42:32;11.53;;;9.20;;
7503;SDS011;3793;48.136;11.536;2023-04-09T11:45:00;10.23;;;9.10;;
7503;SDS011;3793;48.136;11.536;2023-04-09T11:47:27;10.27;;;9.17;;
7503;SDS011;3793;48.136;11.536;2023-04-09T11:49:54;10.57;;;9.33;;
7503;SDS011;3793;48.136;11.536;2023-04-09T11:52:20;11.53;;;10.00;;
7503;SDS011;3793;48.136;11.536;2023-04-09T11:54:47;11.77;;;9.63;;
7503;SDS011;3793;48.136;11.536;2023-04-09T11:57:14;12.27;;;10.53;;
7503;SDS011;3793;48.136;11.536;2023-04-09T11:59:42;13.03;;;11.10;;
7503;SDS011;3793;48.136;11.536;2023-04-09T12:02:09;13.60;;;11.70;;
7503;SDS011;3793;48.136;11.536;2023-04-09T12:04:36;14.43;;;10.57;;
7503;SDS011;3793;48.136;11.536;2023-04-09T12:07:02;11.87;;;10.57;;
7503;SDS011;3793;48.136;11.536;2023-04-09T12:09:33;12.37;;;10.47;;
7503;SDS011;3793;48.136;11.536;2023-04-09T12:11:59;12.67;;;10.70;;
7503;SDS011;3793;48.136;11.536;2023-04-09T12:14:26;13.70;;;11.50;;
7503;SDS011;3793;48.136;11.536;2023-04-09T12:16:54;13.63;;;11.23;;
7503;SDS011;3793;48.136;11.536;2023-04-09T12:19:23;11.83;;;10.27;;
7503;SDS011;3793;48.136;11.536;2023-04-09T12:21:51;12.80;;;11.30;;
7503;SDS011;3793;48.136;11.536;2023-04-09T12:24:20;14.90;;;12.03;;
7503;SDS011;3793;48.136;11.536;2023-04-09T12:26:47;12.93;;;11.17;;
7503;SDS011;3793;48.136;11.536;2023-04-09T12:29:14;15.27;;;11.47;;
7503;SDS011;3793;48.136;11.536;2023-04-09T12:31:41;14.57;;;11.57;;
7503;SDS011;3793;48.136;11.536;2023-04-09T12:34:08;13.03;;;11.13;;
7503;SDS011;3793;48.136;11.536;2023-04-09T12:36:36;13.17;;;11.10;;
7503;SDS011;3793;48.136;11.536;2023-04-09T12:39:03;11.37;;;9.70;;
7503;SDS011;3793;48.136;11.536;2023-04-09T12:41:29;13.07;;;9.93;;
7503;SDS011;3793;48.136;11.536;2023-04-09T12:43:56;11.63;;;10.43;;
7503;SDS011;3793;48.136;11.536;2023-04-09T12:46:22;12.43;;;10.33;;
7503;SDS011;3793;48.136;11.536;2023-04-09T12:48:49;12.27;;;10.53;;
7503;SDS011;3793;48.136;11.536;2023-04-09T12:51:17;11.87;;;10.17;;
7503;SDS011;3793;48.136;11.536;2023-04-09T12:53:45;11.50;;;10.20;;
7503;SDS011;3793;48.136;11.536;2023-04-09T12:56:11;9.93;;;8.77;;
7503;SDS011;3793;48.136;11.536;2023-04-09T12:58:37;12.70;;;10.70;;
7503;SDS011;3793;48.136;11.536;2023-04-09T13:01:04;10.83;;;9.03;;
7503;SDS011;3793;48.136;11.536;2023-04-09T13:03:31;11.97;;;10.67;;
7503;SDS011;3793;48.136;11.536;2023-04-09T13:05:57;12.37;;;10.97;;
7503;SDS011;3793;48.136;11.536;2023-04-09T13:08:25;11.03;;;9.80;;
7503;SDS011;3793;48.136;11.536;2023-04-09T13:10:52;11.53;;;9.77;;
7503;SDS011;3793;48.136;11.536;2023-04-09T13:13:18;13.03;;;10.87;;
7503;SDS011;3793;48.136;11.536;2023-04-09T13:15:45;10.93;;;9.83;;
7503;SDS011;3793;48.136;11.536;2023-04-09T13:18:12;11.77;;;10.47;;
7503;SDS011;3793;48.136;11.536;2023-04-09T13:20:38;11.40;;;10.17;;
7503;SDS011;3793;48.136;11.536;2023-04-09T13:23:05;13.83;;;11.33;;
7503;SDS011;3793;48.136;11.536;2023-04-09T13:25:33;13.33;;;10.77;;
7503;SDS011;3793;48.136;11.536;2023-04-09T13:28:00;13.07;;;10.93;;
7503;SDS011;3793;48.136;11.536;2023-04-09T13:30:26;13.27;;;10.80;;
7503;SDS011;3793;48.136;11.536;2023-04-09T13:32:53;14.03;;;12.03;;
7503;SDS011;3793;48.136;11.536;2023-04-09T13:35:19;12.80;;;11.27;;
7503;SDS011;3793;48.136;11.536;2023-04-09T13:37:46;13.53;;;11.37;;
7503;SDS011;3793;48.136;11.536;2023-04-09T13:40:12;14.50;;;11.13;;
7503;SDS011;3793;48.136;11.536;2023-04-09T13:42:41;11.53;;;10.10;;
7503;SDS011;3793;48.136;11.536;2023-04-09T13:45:08;10.50;;;9.20;;
7503;SDS011;3793;48.136;11.536;2023-04-09T13:47:35;11.53;;;9.67;;
7503;SDS011;3793;48.136;11.536;2023-04-09T13:50:01;11.87;;;10.37;;
7503;SDS011;3793;48.136;11.536;2023-04-09T13:52:28;13.77;;;11.40;;
7503;SDS011;3793;48.136;11.536;2023-04-09T13:54:55;13.27;;;11.53;;
7503;SDS011;3793;48.136;11.536;2023-04-09T13:57:21;12.33;;;10.67;;
7503;SDS011;3793;48.136;11.536;2023-04-09T13:59:49;13.73;;;11.33;;
7503;SDS011;3793;48.136;11.536;2023-04-09T14:02:16;12.70;;;10.40;;
7503;SDS011;3793;48.136;11.536;2023-04-09T14:04:43;11.57;;;10.03;;
7503;SDS011;3793;48.136;11.536;2023-04-09T14:07:09;11.77;;;10.37;;
7503;SDS011;3793;48.136;11.536;2023-04-09T14:09:36;11.50;;;10.30;;
7503;SDS011;3793;48.136;11.536;2023-04-09T14:12:03;10.90;;;9.77;;
7503;SDS011;3793;48.136;11.536;2023-04-09T14:14:29;10.05;;;9.05;;
7503;SDS011;3793;48.136;11.536;2023-04-09T14:16:57;10.18;;;9.13;;
7503;SDS011;3793;48.136;11.536;2023-04-09T14:19:24;11.45;;;9.05;;
7503;SDS011;3793;48.136;11.536;2023-04-09T14:21:50;9.68;;;8.68;;
7503;SDS011;3793;48.136;11.536;2023-04-09T14:24:18;11.23;;;9.80;;
7503;SDS011;3793;48.136;11.536;2023-04-09T14:26:47;10.30;;;9.30;;
7503;SDS011;3793;48.136;11.536;2023-04-09T14:29:13;9.25;;;8.25;;
7503;SDS011;3793;48.136;11.536;2023-04-09T14:31:41;10.55;;;9.27;;
7503;SDS011;3793;48.136;11.536;2023-04-09T14:34:09;9.98;;;8.98;;
7503;SDS011;3793;48.136;11.536;2023-04-09T14:36:36;10.93;;;9.23;;
7503;SDS011;3793;48.136;11.536;2023-04-09T14:39:02;10.83;;;9.33;;
7503;SDS011;3793;48.136;11.536;2023-04-09T14:41:29;8.83;;;7.93;;
7503;SDS011;3793;48.136;11.536;2023-04-09T14:43:58;7.50;;;6.75;;
7503;SDS011;3793;48.136;11.536;2023-04-09T14:46:24;6.68;;;5.97;;
7503;SDS011;3793;48.136;11.536;2023-04-09T14:48:51;6.18;;;5.57;;